createdAt,value
2023-01-17T00:01:48.495Z,6.20
2023-01-17T00:12:16.868Z,6.26
2023-01-17T00:23:02.541Z,6.12
2023-01-17T00:33:29.210Z,6.13
2023-01-17T00:44:14.442Z,6.01
2023-01-17T00:54:59.635Z,6.19
2023-01-17T01:05:45.007Z,6.35
2023-01-17T01:16:30.772Z,6.39
2023-01-17T01:27:15.480Z,6.16
2023-01-17T01:37:42.962Z,6.31
2023-01-17T01:48:23.158Z,6.39
2023-01-17T01:58:54.431Z,6.11
2023-01-17T02:09:22.895Z,6.10
2023-01-17T02:20:22.804Z,5.66
2023-01-17T02:30:53.302Z,5.24
2023-01-17T02:41:23.794Z,4.87
2023-01-17T02:52:23.998Z,4.51
2023-01-17T03:03:03.140Z,4.41
2023-01-17T03:13:31.191Z,4.66
2023-01-17T03:23:58.679Z,4.68
2023-01-17T03:34:26.549Z,4.31
2023-01-17T03:44:54.027Z,4.30
2023-01-17T03:55:21.995Z,4.52
2023-01-17T04:05:49.590Z,4.60
2023-01-17T04:16:19.490Z,4.53
2023-01-17T04:26:47.229Z,4.58
2023-01-17T04:37:14.735Z,4.47
2023-01-17T04:47:42.636Z,4.33
2023-01-17T04:58:10.273Z,4.30
2023-01-17T05:08:37.810Z,4.37
2023-01-17T05:19:05.375Z,4.43
2023-01-17T05:29:33.133Z,4.43
2023-01-17T05:40:00.666Z,4.42
2023-01-17T05:50:31.329Z,3.97
2023-01-17T06:00:59.134Z,3.85
2023-01-17T06:11:26.972Z,3.97
2023-01-17T06:21:54.506Z,4.12
2023-01-17T06:32:22.126Z,4.13
2023-01-17T06:42:49.688Z,4.19
2023-01-17T06:53:17.325Z,4.24
2023-01-17T07:03:45.129Z,4.32
2023-01-17T07:14:16.757Z,4.46
2023-01-17T07:24:44.474Z,4.58
2023-01-17T07:35:13.920Z,4.17
2023-01-17T07:45:44.164Z,3.59
2023-01-17T07:56:11.798Z,3.40
2023-01-17T08:06:43.202Z,3.27
2023-01-17T08:17:14.793Z,3.46
2023-01-17T08:27:43.060Z,3.87
2023-01-17T08:38:11.513Z,4.00
2023-01-17T08:48:38.991Z,3.81
2023-01-17T08:59:06.604Z,3.62
2023-01-17T09:09:34.096Z,3.60
2023-01-17T09:20:01.601Z,3.59
2023-01-17T09:30:29.248Z,3.59
2023-01-17T09:40:56.798Z,3.62
2023-01-17T09:51:25.644Z,3.70
2023-01-17T10:02:03.909Z,3.86
2023-01-17T10:12:41.008Z,4.15
2023-01-17T10:23:33.445Z,4.47
2023-01-17T10:34:07.031Z,4.79
2023-01-17T10:44:40.956Z,5.05
2023-01-17T10:55:25.265Z,5.23
2023-01-17T11:06:19.162Z,5.38
2023-01-17T11:16:47.855Z,5.55
2023-01-17T11:27:25.378Z,5.61
2023-01-17T11:38:01.825Z,5.70
2023-01-17T11:48:33.713Z,5.84
2023-01-17T11:59:25.465Z,6.00
2023-01-17T12:10:05.425Z,6.09
2023-01-17T12:20:42.661Z,6.25
2023-01-17T12:31:20.351Z,6.35
2023-01-17T12:42:00.618Z,6.37
2023-01-17T12:52:40.288Z,6.35
2023-01-17T13:03:17.656Z,6.39
2023-01-17T13:13:45.976Z,6.45
2023-01-17T13:24:23.982Z,6.48
2023-01-17T13:35:13.873Z,6.48
2023-01-17T13:45:42.622Z,6.45
2023-01-17T13:56:16.465Z,6.37
2023-01-17T14:06:46.763Z,6.23
2023-01-17T14:17:37.939Z,6.16
2023-01-17T14:28:09.154Z,6.12
2023-01-17T14:38:42.598Z,6.05
2023-01-17T14:49:25.474Z,5.96
2023-01-17T14:59:52.993Z,5.85
2023-01-17T15:10:24.114Z,5.70
2023-01-17T15:20:58.131Z,5.42
2023-01-17T15:31:38.446Z,5.32
2023-01-17T15:42:08.761Z,5.58
2023-01-17T15:52:49.304Z,5.87
2023-01-17T16:03:26.189Z,6.12
2023-01-17T16:13:53.809Z,6.18
2023-01-17T16:24:21.367Z,6.23
2023-01-17T16:34:49.076Z,6.20
2023-01-17T16:45:17.988Z,6.11
2023-01-17T16:55:46.096Z,6.08
2023-01-17T17:06:15.132Z,5.93
2023-01-17T17:16:43.686Z,5.59
2023-01-17T17:27:09.801Z,5.48
2023-01-17T17:37:37.555Z,5.30
2023-01-17T17:48:05.506Z,5.19
2023-01-17T17:58:33.995Z,5.21
2023-01-17T18:09:01.597Z,5.07
2023-01-17T18:19:29.516Z,4.74
2023-01-17T18:29:57.034Z,4.79
2023-01-17T18:40:24.755Z,4.77
2023-01-17T18:50:59.753Z,4.79
2023-01-17T19:01:29.282Z,4.70
2023-01-17T19:11:57.610Z,4.60
2023-01-17T19:22:25.416Z,4.50
2023-01-17T19:32:53.693Z,4.26
2023-01-17T19:43:21.408Z,4.33
2023-01-17T19:53:49.180Z,4.46
2023-01-17T20:04:18.190Z,4.59
2023-01-17T20:14:45.883Z,4.70
2023-01-17T20:25:14.662Z,4.84
2023-01-17T20:35:40.969Z,5.02
2023-01-17T20:46:09.182Z,4.87
2023-01-17T20:56:37.977Z,4.63
2023-01-17T21:07:05.628Z,4.60
2023-01-17T21:17:34.881Z,4.71
2023-01-17T21:28:02.543Z,4.67
2023-01-17T21:38:31.439Z,4.68
2023-01-17T21:48:59.232Z,4.64
2023-01-17T21:59:26.786Z,4.89
2023-01-17T22:09:54.717Z,5.13
2023-01-17T22:20:22.595Z,5.06
2023-01-17T22:30:50.375Z,5.11
2023-01-17T22:41:20.285Z,5.06
2023-01-17T22:51:47.914Z,5.24
2023-01-17T23:02:16.674Z,5.43
2023-01-17T23:12:44.312Z,5.48
2023-01-17T23:23:11.856Z,5.45
2023-01-17T23:33:39.414Z,5.34
2023-01-17T23:44:07.053Z,5.05
2023-01-17T23:54:35.170Z,5.19
